createdAt,value
2017-02-04T00:00:56.198Z,0
2017-02-04T00:02:06.566Z,0
2017-02-04T00:03:17.357Z,0
2017-02-04T00:04:28.157Z,0
2017-02-04T00:05:38.569Z,0
2017-02-04T00:06:49.328Z,0
2017-02-04T00:07:59.705Z,0
2017-02-04T00:09:10.462Z,0
2017-02-04T00:10:20.833Z,0
2017-02-04T00:11:31.196Z,0
2017-02-04T00:12:41.559Z,0
2017-02-04T00:13:51.527Z,0
2017-02-04T00:15:01.889Z,0
2017-02-04T00:16:12.236Z,0
2017-02-04T00:17:22.578Z,0
2017-02-04T00:18:33.332Z,0
2017-02-04T00:19:43.688Z,0
2017-02-04T00:20:54.453Z,0
2017-02-04T00:22:05.201Z,0
2017-02-04T00:23:16.151Z,0
2017-02-04T00:24:26.523Z,0
2017-02-04T00:25:37.263Z,0
2017-02-04T00:26:48.005Z,0
2017-02-04T00:27:58.758Z,0
2017-02-04T00:29:09.494Z,0
2017-02-04T00:30:19.848Z,0
2017-02-04T00:31:29.799Z,0
2017-02-04T00:32:40.147Z,0
2017-02-04T00:33:50.500Z,0
2017-02-04T00:35:01.262Z,0
2017-02-04T00:36:11.210Z,0
2017-02-04T00:37:21.562Z,0
2017-02-04T00:38:31.516Z,0
2017-02-04T00:39:42.266Z,0
2017-02-04T00:40:52.226Z,0
2017-02-04T00:42:02.984Z,0
2017-02-04T00:43:12.976Z,0
2017-02-04T00:44:23.367Z,0
2017-02-04T00:45:33.713Z,0
2017-02-04T00:46:44.447Z,0
2017-02-04T00:47:54.817Z,0
2017-02-04T00:49:05.154Z,0
2017-02-04T00:50:15.100Z,0
2017-02-04T00:51:25.277Z,0
2017-02-04T00:52:36.071Z,0
2017-02-04T00:53:46.440Z,0
2017-02-04T00:54:57.192Z,0
2017-02-04T00:56:07.553Z,0
2017-02-04T00:57:17.901Z,0
2017-02-04T00:58:28.250Z,0
2017-02-04T00:59:39.010Z,0
2017-02-04T01:00:49.756Z,0
2017-02-04T01:02:00.105Z,0
2017-02-04T01:03:10.844Z,0
2017-02-04T01:04:21.192Z,0
2017-02-04T01:05:31.597Z,0
2017-02-04T01:06:42.321Z,0
2017-02-04T01:07:52.673Z,0
2017-02-04T01:09:02.633Z,0
2017-02-04T01:10:12.989Z,0
2017-02-04T01:11:23.338Z,0
2017-02-04T01:12:33.693Z,0
2017-02-04T01:13:44.442Z,0
2017-02-04T01:14:55.198Z,0
2017-02-04T01:16:05.939Z,0
2017-02-04T01:17:16.295Z,0
2017-02-04T01:18:27.042Z,0
2017-02-04T01:19:37.429Z,0
2017-02-04T01:20:47.400Z,0
2017-02-04T01:21:58.159Z,0
2017-02-04T01:23:08.134Z,0
2017-02-04T01:24:18.884Z,0
2017-02-04T01:25:29.624Z,0
2017-02-04T01:26:40.377Z,0
2017-02-04T01:27:50.996Z,0
2017-02-04T01:29:01.732Z,0
2017-02-04T01:30:11.680Z,0
2017-02-04T01:31:21.639Z,0
2017-02-04T01:32:31.637Z,0
2017-02-04T01:33:42.055Z,0
2017-02-04T01:34:52.800Z,0
2017-02-04T01:36:03.568Z,0
2017-02-04T01:37:13.944Z,0
2017-02-04T01:38:24.683Z,0
2017-02-04T01:39:35.058Z,0
2017-02-04T01:40:45.789Z,0
2017-02-04T01:41:56.137Z,0
2017-02-04T01:43:06.884Z,0
2017-02-04T01:44:17.245Z,0
2017-02-04T01:45:28.044Z,0
2017-02-04T01:46:38.391Z,0
2017-02-04T01:47:48.730Z,0
2017-02-04T01:48:58.681Z,0
2017-02-04T01:50:09.044Z,0
2017-02-04T01:51:19.792Z,0
2017-02-04T01:52:30.530Z,0
2017-02-04T01:53:40.882Z,0
2017-02-04T01:54:51.632Z,0
2017-02-04T01:56:01.979Z,0
2017-02-04T01:57:12.711Z,0
2017-02-04T01:58:23.048Z,0
2017-02-04T01:59:33.004Z,0
2017-02-04T02:00:43.365Z,0
2017-02-04T02:01:54.107Z,0
2017-02-04T02:03:04.084Z,0
2017-02-04T02:04:14.817Z,0
2017-02-04T02:05:25.157Z,0
2017-02-04T02:06:35.499Z,0
2017-02-04T02:07:45.072Z,0
2017-02-04T02:08:55.427Z,0
2017-02-04T02:10:06.166Z,0
2017-02-04T02:11:16.525Z,0
2017-02-04T02:12:27.267Z,0
2017-02-04T02:13:37.615Z,0
2017-02-04T02:14:47.957Z,0
2017-02-04T02:15:58.330Z,0
2017-02-04T02:17:09.075Z,0
2017-02-04T02:18:19.033Z,0
2017-02-04T02:19:29.776Z,0
2017-02-04T02:20:40.531Z,0
2017-02-04T02:21:51.294Z,0
2017-02-04T02:23:02.040Z,0
2017-02-04T02:24:12.777Z,0
2017-02-04T02:25:23.531Z,0
2017-02-04T02:26:33.878Z,0
2017-02-04T02:27:44.219Z,0
2017-02-04T02:28:54.570Z,0
2017-02-04T02:30:04.933Z,0
2017-02-04T02:31:15.704Z,0
2017-02-04T02:32:26.472Z,0
2017-02-04T02:33:37.215Z,0
2017-02-04T02:34:47.164Z,0
2017-02-04T02:35:57.509Z,0
2017-02-04T02:37:07.858Z,0
2017-02-04T02:38:18.199Z,0
2017-02-04T02:39:28.149Z,0
2017-02-04T02:40:38.926Z,0
2017-02-04T02:41:49.491Z,0
2017-02-04T02:43:00.235Z,0
2017-02-04T02:44:10.193Z,0
2017-02-04T02:45:20.978Z,0
2017-02-04T02:46:31.325Z,0
2017-02-04T02:47:42.074Z,0
2017-02-04T02:48:52.436Z,0
2017-02-04T02:50:02.781Z,0
2017-02-04T02:51:12.350Z,0
2017-02-04T02:52:23.099Z,0
2017-02-04T02:53:33.450Z,0
2017-02-04T02:54:43.414Z,0
2017-02-04T02:55:53.373Z,0
2017-02-04T02:57:04.099Z,0
2017-02-04T02:58:14.841Z,0
2017-02-04T02:59:25.196Z,0
2017-02-04T03:00:35.940Z,0
2017-02-04T03:01:46.280Z,0
2017-02-04T03:33:33.025Z,0
2017-02-04T03:34:43.753Z,0
2017-02-04T03:35:54.487Z,0
2017-02-04T03:37:05.229Z,0
2017-02-04T03:38:15.968Z,0
2017-02-04T03:39:26.739Z,0
2017-02-04T03:40:37.086Z,0
2017-02-04T03:41:47.831Z,0
2017-02-04T03:42:58.171Z,0
2017-02-04T03:44:08.510Z,0
2017-02-04T03:45:19.239Z,0
2017-02-04T03:46:30.027Z,0
2017-02-04T03:47:40.768Z,0
2017-02-04T03:48:51.509Z,0
2017-02-04T03:50:01.061Z,0
2017-02-04T03:51:11.405Z,0
2017-02-04T03:52:21.990Z,0
2017-02-04T03:53:32.735Z,0
2017-02-04T03:54:42.679Z,0
2017-02-04T03:55:53.020Z,0
2017-02-04T03:57:03.360Z,0
2017-02-04T03:58:13.708Z,0
2017-02-04T03:59:23.680Z,0
2017-02-04T04:00:34.018Z,0
2017-02-04T04:01:44.774Z,0
2017-02-04T04:02:55.130Z,0
2017-02-04T04:04:05.472Z,0
2017-02-04T04:05:15.829Z,0
2017-02-04T04:06:26.558Z,0
2017-02-04T04:07:37.308Z,0
2017-02-04T04:08:48.049Z,0
2017-02-04T04:09:58.804Z,0
2017-02-04T04:11:08.757Z,0
2017-02-04T04:12:19.503Z,0
2017-02-04T04:13:30.249Z,0
2017-02-04T04:14:40.994Z,0
2017-02-04T04:15:51.745Z,0
2017-02-04T04:17:02.492Z,0
2017-02-04T04:18:13.229Z,0
2017-02-04T04:19:23.985Z,0
2017-02-04T04:20:34.728Z,0
2017-02-04T04:21:45.472Z,0
2017-02-04T04:22:55.829Z,0
2017-02-04T04:24:06.191Z,0
2017-02-04T04:25:16.935Z,0
2017-02-04T04:26:27.284Z,0
2017-02-04T04:27:37.632Z,0
2017-02-04T04:28:48.419Z,0
2017-02-04T04:29:58.775Z,0
2017-02-04T04:31:09.515Z,0
2017-02-04T04:32:19.468Z,0
2017-02-04T04:33:29.635Z,0
2017-02-04T04:34:40.369Z,0
2017-02-04T04:35:49.542Z,0
2017-02-04T04:36:59.885Z,0
2017-02-04T04:38:10.238Z,0
2017-02-04T04:39:20.994Z,0
2017-02-04T04:40:31.350Z,0
2017-02-04T04:41:42.088Z,0
2017-02-04T04:42:52.424Z,0
2017-02-04T04:44:02.776Z,0
2017-02-04T04:45:13.131Z,0
2017-02-04T04:46:23.884Z,0
2017-02-04T04:47:34.241Z,0
2017-02-04T04:48:44.591Z,0
2017-02-04T04:49:55.335Z,0
2017-02-04T04:51:06.113Z,0
2017-02-04T04:52:16.858Z,0
2017-02-04T04:53:27.599Z,0
2017-02-04T04:54:37.948Z,0
2017-02-04T04:55:48.708Z,0
2017-02-04T04:56:59.450Z,0
2017-02-04T04:58:10.202Z,0
2017-02-04T04:59:20.558Z,0
2017-02-04T05:00:30.909Z,0
2017-02-04T05:01:41.664Z,0
2017-02-04T05:02:51.633Z,0
2017-02-04T05:04:01.997Z,0
2017-02-04T05:05:12.732Z,0
2017-02-04T05:06:23.073Z,0
2017-02-04T05:07:33.815Z,0
2017-02-04T05:08:44.153Z,0
2017-02-04T05:09:54.513Z,0
2017-02-04T05:11:04.864Z,0
2017-02-04T05:12:14.826Z,0
2017-02-04T05:13:25.211Z,0
2017-02-04T05:14:35.958Z,0
2017-02-04T05:15:46.541Z,0
2017-02-04T05:16:56.499Z,0
2017-02-04T05:18:06.853Z,0
2017-02-04T05:19:17.201Z,0
2017-02-04T05:20:27.949Z,0
2017-02-04T05:21:38.677Z,0
2017-02-04T05:22:49.014Z,0
2017-02-04T05:23:59.366Z,0
2017-02-04T05:25:09.326Z,0
2017-02-04T05:26:20.125Z,0
2017-02-04T05:27:30.074Z,0
2017-02-04T05:28:40.828Z,0
2017-02-04T05:29:51.579Z,0
2017-02-04T05:31:01.545Z,0
2017-02-04T05:32:11.916Z,0
2017-02-04T05:33:22.649Z,0
2017-02-04T05:34:33.001Z,0
2017-02-04T05:35:43.770Z,0
2017-02-04T05:36:54.517Z,0
2017-02-04T05:38:05.283Z,0
2017-02-04T05:39:15.242Z,0
2017-02-04T05:40:25.998Z,0
2017-02-04T05:41:36.360Z,0
2017-02-04T05:42:46.716Z,0
2017-02-04T05:43:57.079Z,0
2017-02-04T05:45:07.430Z,0
2017-02-04T05:46:18.181Z,0
2017-02-04T05:47:28.928Z,0
2017-02-04T05:48:39.281Z,0
2017-02-04T05:49:50.048Z,0
2017-02-04T05:51:00.796Z,0
2017-02-04T05:52:10.752Z,0
2017-02-04T05:53:21.491Z,0
2017-02-04T05:54:31.839Z,0
2017-02-04T05:55:41.005Z,0
2017-02-04T05:56:51.342Z,0
2017-02-04T05:58:01.713Z,0
2017-02-04T05:59:12.488Z,0
2017-02-04T06:00:22.464Z,0
2017-02-04T06:01:33.211Z,0
2017-02-04T06:02:43.567Z,0
2017-02-04T06:03:54.310Z,0
2017-02-04T06:05:04.287Z,0
2017-02-04T06:06:14.630Z,0
2017-02-04T06:07:25.379Z,0
2017-02-04T06:08:36.136Z,0
2017-02-04T06:09:46.882Z,0
2017-02-04T06:10:56.864Z,5
2017-02-04T06:12:07.608Z,5
2017-02-04T06:13:17.965Z,5
2017-02-04T06:14:28.563Z,5
2017-02-04T06:15:39.322Z,5
2017-02-04T06:16:50.073Z,10
2017-02-04T06:18:00.823Z,10
2017-02-04T06:19:11.567Z,10
2017-02-04T06:20:22.323Z,10
2017-02-04T06:21:33.069Z,10
2017-02-04T06:22:42.634Z,10
2017-02-04T06:23:52.984Z,15
2017-02-04T06:25:02.551Z,15
2017-02-04T06:26:13.281Z,15
2017-02-04T06:27:24.026Z,15
2017-02-04T06:28:34.411Z,15
2017-02-04T06:29:44.757Z,15
2017-02-04T06:30:55.112Z,15
2017-02-04T06:32:05.450Z,15
2017-02-04T06:33:15.808Z,15
2017-02-04T06:34:26.542Z,15
2017-02-04T06:35:36.887Z,15
2017-02-04T06:36:47.638Z,15
2017-02-04T06:37:58.389Z,15
2017-02-04T06:39:09.138Z,15
2017-02-04T06:40:19.926Z,20
2017-02-04T06:41:30.678Z,20
2017-02-04T06:42:41.023Z,20
2017-02-04T06:43:51.372Z,20
2017-02-04T06:45:01.710Z,20
2017-02-04T06:46:12.450Z,20
2017-02-04T06:47:22.807Z,20
2017-02-04T06:48:33.222Z,20
2017-02-04T06:49:43.970Z,20
2017-02-04T06:50:54.324Z,20
2017-02-04T06:52:05.069Z,20
2017-02-04T06:53:15.441Z,20
2017-02-04T06:54:25.399Z,20
2017-02-04T06:55:35.755Z,20
2017-02-04T06:56:46.502Z,20
2017-02-04T06:57:57.243Z,20
2017-02-04T06:59:07.994Z,20
2017-02-04T07:00:18.751Z,20
2017-02-04T07:01:29.488Z,20
2017-02-04T07:02:39.838Z,20
2017-02-04T07:03:50.196Z,20
2017-02-04T07:05:00.542Z,20
2017-02-04T07:06:10.490Z,20
2017-02-04T07:07:21.222Z,20
2017-02-04T07:08:31.577Z,20
2017-02-04T07:09:41.930Z,20
2017-02-04T07:10:52.704Z,20
2017-02-04T07:12:02.676Z,20
2017-02-04T07:13:13.039Z,20
2017-02-04T07:14:22.994Z,20
2017-02-04T07:15:33.350Z,20
2017-02-04T07:16:44.116Z,20
2017-02-04T07:17:54.881Z,20
2017-02-04T07:19:05.622Z,20
2017-02-04T07:20:16.373Z,20
2017-02-04T07:21:27.127Z,20
2017-02-04T07:22:36.679Z,20
2017-02-04T07:23:47.034Z,20
2017-02-04T07:24:57.786Z,20
2017-02-04T07:26:08.526Z,20
2017-02-04T07:27:19.275Z,20
2017-02-04T07:28:30.027Z,20
2017-02-04T07:29:39.978Z,20
2017-02-04T07:30:50.352Z,25
2017-02-04T07:32:01.098Z,20
2017-02-04T07:33:11.447Z,20
2017-02-04T07:34:21.843Z,20
2017-02-04T07:35:32.194Z,25
2017-02-04T07:36:42.936Z,25
2017-02-04T07:37:53.688Z,25
2017-02-04T07:39:04.445Z,25
2017-02-04T07:40:15.203Z,25
2017-02-04T07:41:25.542Z,25
2017-02-04T07:42:36.326Z,25
2017-02-04T07:43:46.288Z,25
2017-02-04T07:44:57.036Z,25
2017-02-04T07:46:07.806Z,30
2017-02-04T07:47:18.559Z,30
2017-02-04T07:48:28.916Z,30
2017-02-04T07:49:39.280Z,30
2017-02-04T07:50:49.619Z,30
2017-02-04T07:51:59.572Z,30
2017-02-04T07:53:10.336Z,30
2017-02-04T07:54:20.694Z,30
2017-02-04T07:55:31.440Z,30
2017-02-04T07:56:41.845Z,30
2017-02-04T07:57:52.195Z,35
2017-02-04T07:59:02.555Z,35
2017-02-04T08:00:13.298Z,35
2017-02-04T08:01:24.052Z,35
2017-02-04T08:02:34.794Z,35
2017-02-04T08:03:45.152Z,40
2017-02-04T08:04:54.328Z,40
2017-02-04T08:06:05.077Z,40
2017-02-04T08:07:15.830Z,40
2017-02-04T08:08:26.588Z,45
2017-02-04T08:09:36.952Z,45
2017-02-04T08:10:47.734Z,50
2017-02-04T08:11:58.484Z,50
2017-02-04T08:13:08.845Z,55
2017-02-04T08:14:19.602Z,55
2017-02-04T08:15:30.394Z,55
2017-02-04T08:16:40.745Z,55
2017-02-04T08:17:50.703Z,55
2017-02-04T08:19:01.470Z,55
2017-02-04T08:20:11.836Z,55
2017-02-04T08:21:22.198Z,55
2017-02-04T08:22:32.939Z,55
2017-02-04T08:23:43.691Z,55
2017-02-04T08:24:54.043Z,55
2017-02-04T08:26:04.007Z,60
2017-02-04T08:27:14.365Z,60
2017-02-04T08:28:24.707Z,60
2017-02-04T08:29:35.073Z,65
2017-02-04T08:30:45.430Z,65
2017-02-04T08:31:56.182Z,65
2017-02-04T08:33:06.547Z,65
2017-02-04T08:34:17.500Z,65
2017-02-04T08:35:28.263Z,65
2017-02-04T08:36:39.016Z,65
2017-02-04T08:37:48.980Z,70
2017-02-04T08:38:58.953Z,70
2017-02-04T08:40:09.715Z,75
2017-02-04T08:41:20.062Z,75
2017-02-04T08:42:30.426Z,80
2017-02-04T08:43:40.804Z,80
2017-02-04T08:44:51.556Z,85
2017-02-04T08:46:02.330Z,85
2017-02-04T08:47:12.702Z,90
2017-02-04T08:48:22.660Z,90
2017-02-04T08:49:33.017Z,90
2017-02-04T08:50:43.375Z,95
2017-02-04T08:51:54.144Z,100
2017-02-04T08:53:04.503Z,100
2017-02-04T08:54:15.266Z,100
2017-02-04T08:55:25.666Z,105
2017-02-04T08:56:36.422Z,105
2017-02-04T08:57:47.441Z,105
2017-02-04T08:58:57.797Z,110
2017-02-04T09:00:08.159Z,110
2017-02-04T09:01:18.918Z,110
2017-02-04T09:02:29.697Z,110
2017-02-04T09:03:40.439Z,105
2017-02-04T09:04:50.796Z,105
2017-02-04T09:06:01.552Z,105
2017-02-04T09:07:11.904Z,105
2017-02-04T09:08:22.659Z,105
2017-02-04T09:09:33.410Z,105
2017-02-04T09:10:44.168Z,105
2017-02-04T09:11:54.535Z,110
2017-02-04T09:13:04.888Z,110
2017-02-04T09:14:15.238Z,115
2017-02-04T09:15:25.600Z,115
2017-02-04T09:16:36.342Z,115
2017-02-04T09:17:46.728Z,115
2017-02-04T09:18:57.087Z,115
2017-02-04T09:20:07.501Z,115
2017-02-04T09:21:17.495Z,115
2017-02-04T09:22:27.857Z,120
2017-02-04T09:23:38.618Z,115
2017-02-04T09:24:49.370Z,110
2017-02-04T09:25:59.714Z,105
2017-02-04T09:27:10.082Z,100
2017-02-04T09:28:20.049Z,95
2017-02-04T09:29:30.801Z,90
2017-02-04T09:30:41.546Z,90
2017-02-04T09:31:51.518Z,90
2017-02-04T09:33:01.893Z,95
2017-02-04T09:34:12.252Z,90
2017-02-04T09:35:22.590Z,95
2017-02-04T09:36:33.351Z,100
2017-02-04T09:37:43.735Z,100
2017-02-04T09:38:54.085Z,105
2017-02-04T09:40:04.846Z,110
2017-02-04T09:41:14.815Z,115
2017-02-04T09:42:25.168Z,120
2017-02-04T09:43:35.542Z,120
2017-02-04T09:44:46.290Z,125
2017-02-04T09:45:57.048Z,120
2017-02-04T09:47:07.005Z,120
2017-02-04T09:48:17.812Z,120
2017-02-04T09:49:28.565Z,120
2017-02-04T09:50:39.355Z,125
2017-02-04T09:51:50.107Z,125
2017-02-04T09:53:00.843Z,130
2017-02-04T09:54:10.822Z,130
2017-02-04T09:55:21.574Z,135
2017-02-04T09:56:31.943Z,140
2017-02-04T09:57:41.921Z,145
2017-02-04T09:58:52.916Z,145
2017-02-04T10:00:03.665Z,150
2017-02-04T10:01:14.030Z,155
2017-02-04T10:02:24.784Z,155
2017-02-04T10:03:35.556Z,160
2017-02-04T10:04:45.912Z,170
2017-02-04T10:05:56.290Z,170
2017-02-04T10:07:07.039Z,180
2017-02-04T10:08:17.392Z,190
2017-02-04T10:09:27.742Z,195
2017-02-04T10:10:38.508Z,205
2017-02-04T10:11:48.881Z,210
2017-02-04T10:12:59.245Z,220
2017-02-04T10:14:09.225Z,225
2017-02-04T10:15:19.585Z,235
2017-02-04T10:16:30.337Z,245
2017-02-04T10:17:40.687Z,250
2017-02-04T10:18:51.033Z,250
2017-02-04T10:20:01.395Z,255
2017-02-04T10:21:11.773Z,255
2017-02-04T10:22:21.340Z,255
2017-02-04T10:23:32.091Z,260
2017-02-04T10:24:42.441Z,265
2017-02-04T10:25:52.417Z,275
2017-02-04T10:27:02.780Z,270
2017-02-04T10:28:13.144Z,270
2017-02-04T10:29:23.909Z,270
2017-02-04T10:30:33.860Z,270
2017-02-04T10:31:43.824Z,270
2017-02-04T10:32:54.182Z,275
2017-02-04T10:34:04.932Z,285
2017-02-04T10:35:15.289Z,305
2017-02-04T10:36:26.044Z,315
2017-02-04T10:37:36.837Z,315
2017-02-04T10:38:47.219Z,310
2017-02-04T10:39:57.974Z,310
2017-02-04T10:41:07.940Z,310
2017-02-04T10:42:18.683Z,305
2017-02-04T10:43:28.676Z,295
2017-02-04T10:44:39.431Z,280
2017-02-04T10:45:49.792Z,270
2017-02-04T10:47:00.143Z,265
2017-02-04T10:48:10.928Z,260
2017-02-04T10:49:21.697Z,260
2017-02-04T10:50:32.448Z,260
2017-02-04T10:51:43.220Z,260
2017-02-04T10:52:53.593Z,260
2017-02-04T10:54:04.186Z,265
2017-02-04T10:55:13.760Z,280
2017-02-04T10:56:24.539Z,275
2017-02-04T10:57:34.932Z,275
2017-02-04T10:58:44.949Z,275
2017-02-04T10:59:55.721Z,315
2017-02-04T11:01:06.465Z,275
2017-02-04T11:02:16.825Z,265
2017-02-04T11:03:26.795Z,275
2017-02-04T11:04:37.153Z,285
2017-02-04T11:05:47.898Z,275
2017-02-04T11:06:58.665Z,325
2017-02-04T11:08:08.631Z,295
2017-02-04T11:09:18.197Z,285
2017-02-04T11:10:28.950Z,280
2017-02-04T11:11:39.750Z,255
2017-02-04T11:12:50.108Z,220
2017-02-04T11:14:00.488Z,190
2017-02-04T11:15:10.845Z,180
2017-02-04T11:16:21.586Z,180
2017-02-04T11:17:31.937Z,190
2017-02-04T11:18:42.305Z,210
2017-02-04T11:19:53.056Z,210
2017-02-04T11:21:03.414Z,210
2017-02-04T11:22:13.773Z,210
2017-02-04T11:23:24.536Z,215
2017-02-04T11:24:35.282Z,225
2017-02-04T11:25:45.637Z,225
2017-02-04T11:26:55.989Z,220
2017-02-04T11:28:06.005Z,230
2017-02-04T11:29:16.764Z,225
2017-02-04T11:30:27.143Z,225
2017-02-04T11:31:37.514Z,215
2017-02-04T11:32:48.253Z,215
2017-02-04T11:33:59.014Z,205
2017-02-04T11:35:09.381Z,215
2017-02-04T11:36:19.748Z,235
2017-02-04T11:37:30.121Z,240
2017-02-04T11:38:40.868Z,250
2017-02-04T11:39:51.260Z,245
2017-02-04T11:41:01.646Z,230
2017-02-04T11:42:12.398Z,225
2017-02-04T11:43:23.150Z,225
2017-02-04T11:44:33.150Z,230
2017-02-04T11:45:43.526Z,225
2017-02-04T11:46:53.877Z,225
2017-02-04T11:48:04.639Z,225
2017-02-04T11:49:14.204Z,220
2017-02-04T11:50:25.210Z,225
2017-02-04T11:51:34.786Z,230
2017-02-04T11:52:45.139Z,235
2017-02-04T11:53:55.889Z,235
2017-02-04T11:55:05.851Z,240
2017-02-04T11:56:16.268Z,235
2017-02-04T11:57:27.052Z,235
2017-02-04T11:58:37.824Z,235
2017-02-04T11:59:48.592Z,230
2017-02-04T12:00:59.189Z,225
2017-02-04T12:02:09.946Z,225
2017-02-04T12:03:20.310Z,225
2017-02-04T12:04:31.059Z,230
2017-02-04T12:05:41.867Z,230
2017-02-04T12:06:52.627Z,235
2017-02-04T12:08:02.972Z,235
2017-02-04T12:09:13.331Z,235
2017-02-04T12:10:23.687Z,240
2017-02-04T12:11:34.065Z,245
2017-02-04T12:12:44.808Z,240
2017-02-04T12:13:55.170Z,240
2017-02-04T12:15:05.572Z,240
2017-02-04T12:16:15.551Z,280
2017-02-04T12:17:26.307Z,285
2017-02-04T12:18:36.269Z,290
2017-02-04T12:19:47.021Z,300
2017-02-04T12:20:57.389Z,305
2017-02-04T12:22:08.141Z,300
2017-02-04T12:23:18.108Z,290
2017-02-04T12:24:28.476Z,300
2017-02-04T12:25:39.251Z,300
2017-02-04T12:26:50.016Z,300
2017-02-04T12:28:00.427Z,300
2017-02-04T12:29:10.798Z,300
2017-02-04T12:30:21.550Z,295
2017-02-04T12:31:31.517Z,290
2017-02-04T12:32:42.271Z,285
2017-02-04T12:33:53.037Z,280
2017-02-04T12:35:03.801Z,280
2017-02-04T12:36:14.567Z,280
2017-02-04T12:37:24.933Z,275
2017-02-04T12:38:35.295Z,275
2017-02-04T12:39:45.267Z,270
2017-02-04T12:40:56.013Z,265
2017-02-04T12:42:06.369Z,270
2017-02-04T12:43:16.736Z,265
2017-02-04T12:44:26.723Z,270
2017-02-04T12:45:36.681Z,270
2017-02-04T12:46:47.687Z,265
2017-02-04T12:47:58.584Z,260
2017-02-04T12:49:08.998Z,265
2017-02-04T12:50:19.756Z,260
2017-02-04T12:51:30.652Z,260
2017-02-04T12:52:41.648Z,260
2017-02-04T12:53:52.014Z,255
2017-02-04T12:55:03.088Z,255
2017-02-04T12:56:13.691Z,255
2017-02-04T12:57:24.487Z,255
2017-02-04T12:58:35.473Z,250
2017-02-04T12:59:45.851Z,250
2017-02-04T13:00:56.217Z,250
2017-02-04T13:02:05.984Z,250
2017-02-04T13:03:16.061Z,245
2017-02-04T13:04:27.172Z,240
2017-02-04T13:05:37.665Z,245
2017-02-04T13:06:48.955Z,230
2017-02-04T13:07:58.632Z,235
2017-02-04T13:09:08.624Z,235
2017-02-04T13:10:19.376Z,230
2017-02-04T13:11:30.219Z,230
2017-02-04T13:12:40.810Z,225
2017-02-04T13:13:51.591Z,230
2017-02-04T13:15:02.503Z,230
2017-02-04T13:16:12.868Z,225
2017-02-04T13:17:23.230Z,220
2017-02-04T13:18:33.993Z,215
2017-02-04T13:19:45.050Z,215
2017-02-04T13:20:55.416Z,215
2017-02-04T13:22:06.169Z,215
2017-02-04T13:23:16.548Z,215
2017-02-04T13:24:27.293Z,215
2017-02-04T13:25:37.667Z,210
2017-02-04T13:26:48.439Z,210
2017-02-04T13:27:59.196Z,210
2017-02-04T13:29:09.963Z,205
2017-02-04T13:30:20.565Z,205
2017-02-04T13:31:30.930Z,205
2017-02-04T13:32:41.293Z,200
2017-02-04T13:33:52.054Z,205
2017-02-04T13:35:02.408Z,195
2017-02-04T13:36:12.770Z,195
2017-02-04T13:37:23.545Z,195
2017-02-04T13:38:33.142Z,195
2017-02-04T13:39:43.898Z,190
2017-02-04T13:40:54.654Z,190
2017-02-04T13:42:05.010Z,190
2017-02-04T13:43:15.778Z,185
2017-02-04T13:44:26.534Z,185
2017-02-04T13:45:36.896Z,185
2017-02-04T13:46:47.263Z,180
2017-02-04T13:47:58.005Z,180
2017-02-04T13:49:08.746Z,180
2017-02-04T13:50:19.098Z,180
2017-02-04T13:51:29.453Z,175
2017-02-04T13:52:40.217Z,175
2017-02-04T13:53:50.963Z,175
2017-02-04T13:55:01.718Z,175
2017-02-04T13:56:12.463Z,175
2017-02-04T13:57:23.210Z,170
2017-02-04T13:58:33.575Z,170
2017-02-04T13:59:44.321Z,165
2017-02-04T14:00:55.075Z,165
2017-02-04T14:02:05.451Z,160
2017-02-04T14:03:15.797Z,160
2017-02-04T14:04:26.151Z,160
2017-02-04T14:05:36.926Z,165
2017-02-04T14:06:46.936Z,155
2017-02-04T14:07:57.703Z,155
2017-02-04T14:09:08.449Z,150
2017-02-04T14:10:19.200Z,150
2017-02-04T14:11:28.368Z,140
2017-02-04T14:12:39.115Z,140
2017-02-04T14:13:49.922Z,140
2017-02-04T14:15:00.292Z,135
2017-02-04T14:16:11.054Z,135
2017-02-04T14:17:21.012Z,140
2017-02-04T14:18:31.764Z,135
2017-02-04T14:19:42.111Z,130
2017-02-04T14:20:52.868Z,125
2017-02-04T14:22:03.252Z,125
2017-02-04T14:23:14.010Z,120
2017-02-04T14:24:24.381Z,115
2017-02-04T14:25:35.142Z,110
2017-02-04T14:26:45.500Z,105
2017-02-04T14:27:55.866Z,95
2017-02-04T14:29:06.226Z,85
2017-02-04T14:30:16.970Z,85
2017-02-04T14:31:27.322Z,80
2017-02-04T14:32:38.083Z,80
2017-02-04T14:33:48.835Z,85
2017-02-04T14:34:59.582Z,90
2017-02-04T14:36:09.947Z,90
2017-02-04T14:37:20.719Z,90
2017-02-04T14:38:31.493Z,85
2017-02-04T14:39:41.456Z,85
2017-02-04T14:40:52.203Z,85
2017-02-04T14:42:02.575Z,80
2017-02-04T14:43:12.137Z,70
2017-02-04T14:44:22.501Z,70
2017-02-04T14:45:32.457Z,70
2017-02-04T14:46:42.802Z,70
2017-02-04T14:47:53.574Z,70
2017-02-04T14:49:03.136Z,65
2017-02-04T14:50:13.889Z,65
2017-02-04T14:51:24.661Z,65
2017-02-04T14:52:35.426Z,65
2017-02-04T14:53:46.180Z,60
2017-02-04T14:54:56.943Z,60
2017-02-04T14:56:07.719Z,60
2017-02-04T14:57:18.085Z,60
2017-02-04T14:58:28.440Z,55
2017-02-04T14:59:39.241Z,55
2017-02-04T15:00:49.623Z,55
2017-02-04T15:02:00.385Z,50
2017-02-04T15:03:11.133Z,45
2017-02-04T15:04:21.884Z,45
2017-02-04T15:05:32.651Z,45
2017-02-04T15:06:43.397Z,40
2017-02-04T15:07:53.746Z,40
2017-02-04T15:09:04.114Z,40
2017-02-04T15:10:14.468Z,40
2017-02-04T15:11:25.242Z,35
2017-02-04T15:12:35.235Z,35
2017-02-04T15:13:45.994Z,35
2017-02-04T15:14:56.348Z,35
2017-02-04T15:16:06.328Z,35
2017-02-04T15:17:17.069Z,35
2017-02-04T15:18:27.443Z,35
2017-02-04T15:19:37.840Z,35
2017-02-04T15:20:48.583Z,35
2017-02-04T15:21:59.329Z,35
2017-02-04T15:23:10.091Z,30
2017-02-04T15:24:20.836Z,30
2017-02-04T15:25:31.592Z,30
2017-02-04T15:26:41.977Z,30
2017-02-04T15:27:52.373Z,30
2017-02-04T15:29:02.730Z,25
2017-02-04T15:30:13.487Z,25
2017-02-04T15:31:24.247Z,25
2017-02-04T15:32:34.587Z,25
2017-02-04T15:33:44.937Z,20
2017-02-04T15:34:55.683Z,20
2017-02-04T15:36:06.043Z,20
2017-02-04T15:37:16.412Z,20
2017-02-04T15:38:27.189Z,15
2017-02-04T15:39:37.959Z,15
2017-02-04T15:40:48.335Z,15
2017-02-04T15:41:59.089Z,15
2017-02-04T15:43:09.864Z,10
2017-02-04T15:44:20.464Z,10
2017-02-04T15:45:30.807Z,10
2017-02-04T15:46:41.546Z,10
2017-02-04T15:47:52.299Z,10
2017-02-04T15:49:02.254Z,5
2017-02-04T15:50:12.207Z,5
2017-02-04T15:51:22.181Z,5
2017-02-04T15:52:32.935Z,5
2017-02-04T15:53:45.200Z,5
2017-02-04T15:54:55.186Z,5
2017-02-04T15:56:05.915Z,5
2017-02-04T15:57:16.266Z,0
2017-02-04T15:58:26.226Z,0
2017-02-04T15:59:36.581Z,0
2017-02-04T16:00:46.937Z,0
2017-02-04T16:01:57.303Z,0
2017-02-04T16:03:08.076Z,0
2017-02-04T16:04:18.439Z,0
2017-02-04T16:05:28.395Z,0
2017-02-04T16:06:38.352Z,0
2017-02-04T16:07:48.708Z,0
2017-02-04T16:08:59.445Z,0
2017-02-04T16:10:09.798Z,0
2017-02-04T16:11:20.566Z,0
2017-02-04T16:12:31.328Z,0
2017-02-04T16:13:42.100Z,0
2017-02-04T16:14:52.863Z,0
2017-02-04T16:16:03.617Z,0
2017-02-04T16:17:14.391Z,0
2017-02-04T16:18:24.740Z,0
2017-02-04T16:19:35.107Z,0
2017-02-04T16:20:45.072Z,0
2017-02-04T16:21:55.862Z,0
2017-02-04T16:23:06.628Z,0
2017-02-04T16:24:16.983Z,0
2017-02-04T16:25:27.723Z,0
2017-02-04T16:26:37.691Z,0
2017-02-04T16:27:48.659Z,0
2017-02-04T16:28:59.017Z,0
2017-02-04T16:30:09.382Z,0
2017-02-04T16:31:20.137Z,0
2017-02-04T16:32:30.898Z,0
2017-02-04T16:33:41.638Z,0
2017-02-04T16:34:52.017Z,0
2017-02-04T16:36:02.776Z,0
2017-02-04T16:37:12.740Z,0
2017-02-04T16:38:23.500Z,0
2017-02-04T16:39:33.860Z,0
2017-02-04T16:40:44.219Z,0
2017-02-04T16:41:54.988Z,0
2017-02-04T16:43:04.955Z,0
2017-02-04T16:44:15.298Z,0
2017-02-04T16:45:25.666Z,0
2017-02-04T16:46:36.024Z,0
2017-02-04T16:47:46.377Z,0
2017-02-04T16:48:56.716Z,0
2017-02-04T16:50:07.472Z,0
2017-02-04T16:51:18.228Z,0
2017-02-04T16:52:28.971Z,0
2017-02-04T16:53:39.580Z,0
2017-02-04T16:54:49.934Z,0
2017-02-04T16:56:00.708Z,0
2017-02-04T16:57:11.475Z,0
2017-02-04T16:58:21.857Z,0
2017-02-04T16:59:32.659Z,0
2017-02-04T17:00:43.477Z,0
2017-02-04T17:01:53.866Z,0
2017-02-04T17:03:04.269Z,0
2017-02-04T17:04:14.663Z,0
2017-02-04T17:05:24.272Z,0
2017-02-04T17:06:34.283Z,0
2017-02-04T17:07:44.674Z,0
2017-02-04T17:08:55.479Z,0
2017-02-04T17:10:06.301Z,0
2017-02-04T17:11:16.310Z,0
2017-02-04T17:12:26.719Z,0
2017-02-04T17:13:36.703Z,0
2017-02-04T17:14:47.113Z,0
2017-02-04T17:15:57.946Z,0
2017-02-04T17:17:08.725Z,0
2017-02-04T17:18:19.336Z,0
2017-02-04T17:19:29.748Z,0